Satisfaction — WDF7649 — position and weather

sailwx.info

Track history (hours):
 
Tides and Currents Weather Stations Pressure Air Temp Water Temp Dewpoint Dewpoint Depression Visibility Wind Speed Wind Dir Waves Ship Positions

Satisfaction

Owner: Foley, Michael W, Redmond, WA. More information available from US FCC via Universal Licensing System and Coast Guard Vessel Documentation Center.

Last reported at 2017-Jul-26 19:10 UTC. Time now 2017-Jul-27 08:51 UTC.
Position N 48°25' W 123°22'.

Length 16 m.

Type: Pleasure craft. MMSI: 367486660.

Date/timePositionNaut miles runAvg speedWind from/ knotsBaromVisibWave heightAir tempDewpointWater temp
2017-Jul-26 19:10N 48°25' W 123°22'0 0.8
2017-Jul-26 18:38N 48°25' W 123°23'0 2.9
2017-Jul-26 18:30N 48°25' W 123°23'4 7.8
2017-Jul-26 18:00N 48°23' W 123°18'5 9.5
2017-Jul-26 17:30N 48°26' W 123°12'611.9
2017-Jul-26 17:00N 48°32' W 123°13'611.7
2017-Jul-26 16:30N 48°37' W 123°12'3 0.1
2017-Jul-25 19:29N 48°40' W 123°11'3 6.1
2017-Jul-25 19:00N 48°37' W 123°10'1 0.0
2017-Jul-24 12:53N 48°37' W 123°09'0 0.0
2017-Jul-24 12:29N 48°37' W 123°09'0 0.0
2017-Jul-24 11:59N 48°37' W 123°09'0 0.0
2017-Jul-24 10:14N 48°37' W 123°09'0 0.0
2017-Jul-24 09:59N 48°37' W 123°09'0 0.0
2017-Jul-24 08:38N 48°37' W 123°09'0 0.0
2017-Jul-24 08:08N 48°37' W 123°09'0 0.0
2017-Jul-23 22:23N 48°37' W 123°09'  
2017-Jul-21 12:53N 48°37' W 123°09'0 0.0
2017-Jul-20 21:11N 48°37' W 123°09'6 2.6
2017-Jul-20 18:51N 48°34' W 123°01'412.7
2017-Jul-20 18:30N 48°31' W 122°57'3813.5
2017-Jul-20 15:40N 47°56' W 122°32'315.4
2017-Jul-20 15:30N 47°54' W 122°30'715.0
2017-Jul-20 15:00N 47°47' W 122°27'8 7.9
2017-Jul-20 14:00N 47°40' W 122°23'6 6.5
2017-Jul-20 13:06N 47°39' W 122°14'1 8.6
2017-Jul-20 12:59N 47°39' W 122°13'0 0.2
2017-Jul-20 12:30N 47°39' W 122°12'0 0.0
2017-Jul-20 12:00N 47°39' W 122°12'0 0.0
2017-Jul-20 11:27N 47°39' W 122°12'0 0.0
2017-Jul-20 11:00N 47°39' W 122°12'0 0.0
2017-Jul-20 10:21N 47°39' W 122°12'0 0.0
2017-Jul-20 09:57N 47°39' W 122°12'0 0.0
2017-Jul-20 09:24N 47°39' W 122°12'0 0.0
2017-Jul-20 08:45N 47°39' W 122°12'0 0.0
2017-Jul-20 08:24N 47°39' W 122°12'0 0.0
2017-Jul-20 07:57N 47°39' W 122°12'0 0.0
2017-Jul-20 07:09N 47°39' W 122°12'0 0.0
2017-Jul-20 06:51N 47°39' W 122°12'0 0.0
2017-Jul-20 02:51N 47°39' W 122°12'0 0.0
2017-Jul-19 18:54N 47°39' W 122°12'0 0.0
2017-Jul-19 17:33N 47°39' W 122°12'0 0.0
2017-Jul-19 17:15N 47°39' W 122°12'0 0.0
2017-Jul-19 17:00N 47°39' W 122°12'0 0.0
2017-Jul-19 15:48N 47°39' W 122°12'0 0.0
2017-Jul-19 15:27N 47°39' W 122°12'0 0.0
2017-Jul-19 14:45N 47°39' W 122°12'0 0.0
2017-Jul-19 13:51N 47°39' W 122°12'0 0.0
2017-Jul-19 10:33N 47°39' W 122°12'0 0.0
2017-Jul-19 09:51N 47°39' W 122°12'0 0.0
2017-Jul-19 01:49N 47°39' W 122°12'0 0.0
2017-Jul-18 22:33N 47°39' W 122°12'0 2.1
2017-Jul-18 22:30N 47°39' W 122°13'1 0.6
2017-Jul-18 20:28N 47°40' W 122°13'1 2.3
2017-Jul-18 19:56N 47°39' W 122°12'0 0.0
2017-Jul-18 19:29N 47°39' W 122°12'0 0.0
2017-Jul-18 17:41N 47°39' W 122°12'0 0.0
2017-Jul-18 17:23N 47°39' W 122°12'0 0.0
2017-Jul-18 16:59N 47°39' W 122°12'0 0.0
2017-Jul-18 16:23N 47°39' W 122°12'0 0.0
2017-Jul-18 13:38N 47°39' W 122°12'0 0.0
2017-Jul-18 12:32N 47°39' W 122°12'0 0.0
2017-Jul-18 12:29N 47°39' W 122°12'0 0.0
2017-Jul-18 11:53N 47°39' W 122°12'0 0.0
2017-Jul-18 11:20N 47°39' W 122°12'0 0.0
2017-Jul-18 04:11N 47°39' W 122°12'0 0.0
2017-Jul-18 03:05N 47°39' W 122°12'0 0.0
2017-Jul-18 00:29N 47°39' W 122°12'0 0.0
2017-Jul-17 23:11N 47°39' W 122°12'0 0.0
2017-Jul-17 22:47N 47°39' W 122°12'0 0.0
2017-Jul-17 18:11N 47°39' W 122°12'0 0.0
2017-Jul-17 17:53N 47°39' W 122°12'0 0.0
2017-Jul-17 17:23N 47°39' W 122°12'0 0.0
2017-Jul-17 16:53N 47°39' W 122°12'0 0.0
2017-Jul-17 16:29N 47°39' W 122°12'0 0.0
2017-Jul-17 15:53N 47°39' W 122°12'0 0.0
2017-Jul-17 15:17N 47°39' W 122°12'0 0.0
2017-Jul-17 14:59N 47°39' W 122°12'0 0.0
2017-Jul-17 14:29N 47°39' W 122°12'0 0.0
2017-Jul-17 13:59N 47°39' W 122°12'0 0.0
2017-Jul-17 13:17N 47°39' W 122°12'0 0.0
2017-Jul-17 12:59N 47°39' W 122°12'0 0.0
2017-Jul-17 10:59N 47°39' W 122°12'0 0.0
2017-Jul-17 10:23N 47°39' W 122°12'0 0.1
2017-Jul-17 09:53N 47°39' W 122°12'0 0.1
2017-Jul-17 09:29N 47°39' W 122°12'0 0.0
2017-Jul-17 05:47N 47°39' W 122°12'0 0.0
2017-Jul-17 05:11N 47°39' W 122°12'0 0.0
2017-Jul-17 04:59N 47°39' W 122°12'0 0.0
2017-Jul-17 04:29N 47°39' W 122°12'0 0.0
2017-Jul-17 03:53N 47°39' W 122°12'0 0.0
2017-Jul-17 03:29N 47°39' W 122°12'0 0.0
2017-Jul-16 23:17N 47°39' W 122°12'0 0.0
2017-Jul-16 22:47N 47°39' W 122°12'  
Track history (hours):
 
Tides and Currents Weather Stations Pressure Air Temp Water Temp Dewpoint Dewpoint Depression Visibility Wind Speed Wind Dir Waves Ship Positions

Satisfaction

Owner: Foley, Michael W, Redmond, WA. More information available from US FCC via Universal Licensing System and Coast Guard Vessel Documentation Center.

Last reported at 2017-Jul-26 19:10 UTC. Time now 2017-Jul-27 08:51 UTC.
Position N 48°25' W 123°22'.

Length 16 m.

Type: Pleasure craft. MMSI: 367486660.

Date/timePositionNaut miles runAvg speedWind from/ knotsBaromVisibWave heightAir tempDewpointWater temp
2017-Jul-26 19:10N 48°25' W 123°22'0 0.8
2017-Jul-26 18:38N 48°25' W 123°23'0 2.9
2017-Jul-26 18:30N 48°25' W 123°23'4 7.8
2017-Jul-26 18:00N 48°23' W 123°18'5 9.5
2017-Jul-26 17:30N 48°26' W 123°12'611.9
2017-Jul-26 17:00N 48°32' W 123°13'611.7
2017-Jul-26 16:30N 48°37' W 123°12'3 0.1
2017-Jul-25 19:29N 48°40' W 123°11'3 6.1
2017-Jul-25 19:00N 48°37' W 123°10'1 0.0
2017-Jul-24 12:53N 48°37' W 123°09'0 0.0
2017-Jul-24 12:29N 48°37' W 123°09'0 0.0
2017-Jul-24 11:59N 48°37' W 123°09'0 0.0
2017-Jul-24 10:14N 48°37' W 123°09'0 0.0
2017-Jul-24 09:59N 48°37' W 123°09'0 0.0
2017-Jul-24 08:38N 48°37' W 123°09'0 0.0
2017-Jul-24 08:08N 48°37' W 123°09'0 0.0
2017-Jul-23 22:23N 48°37' W 123°09'  
2017-Jul-21 12:53N 48°37' W 123°09'0 0.0
2017-Jul-20 21:11N 48°37' W 123°09'6 2.6
2017-Jul-20 18:51N 48°34' W 123°01'412.7
2017-Jul-20 18:30N 48°31' W 122°57'3813.5
2017-Jul-20 15:40N 47°56' W 122°32'315.4
2017-Jul-20 15:30N 47°54' W 122°30'715.0
2017-Jul-20 15:00N 47°47' W 122°27'8 7.9
2017-Jul-20 14:00N 47°40' W 122°23'6 6.5
2017-Jul-20 13:06N 47°39' W 122°14'1 8.6
2017-Jul-20 12:59N 47°39' W 122°13'0 0.2
2017-Jul-20 12:30N 47°39' W 122°12'0 0.0
2017-Jul-20 12:00N 47°39' W 122°12'0 0.0
2017-Jul-20 11:27N 47°39' W 122°12'0 0.0
2017-Jul-20 11:00N 47°39' W 122°12'0 0.0
2017-Jul-20 10:21N 47°39' W 122°12'0 0.0
2017-Jul-20 09:57N 47°39' W 122°12'0 0.0
2017-Jul-20 09:24N 47°39' W 122°12'0 0.0
2017-Jul-20 08:45N 47°39' W 122°12'0 0.0
2017-Jul-20 08:24N 47°39' W 122°12'0 0.0
2017-Jul-20 07:57N 47°39' W 122°12'0 0.0
2017-Jul-20 07:09N 47°39' W 122°12'0 0.0
2017-Jul-20 06:51N 47°39' W 122°12'0 0.0
2017-Jul-20 02:51N 47°39' W 122°12'0 0.0
2017-Jul-19 18:54N 47°39' W 122°12'0 0.0
2017-Jul-19 17:33N 47°39' W 122°12'0 0.0
2017-Jul-19 17:15N 47°39' W 122°12'0 0.0
2017-Jul-19 17:00N 47°39' W 122°12'0 0.0
2017-Jul-19 15:48N 47°39' W 122°12'0 0.0
2017-Jul-19 15:27N 47°39' W 122°12'0 0.0
2017-Jul-19 14:45N 47°39' W 122°12'0 0.0
2017-Jul-19 13:51N 47°39' W 122°12'0 0.0
2017-Jul-19 10:33N 47°39' W 122°12'0 0.0
2017-Jul-19 09:51N 47°39' W 122°12'0 0.0
2017-Jul-19 01:49N 47°39' W 122°12'0 0.0
2017-Jul-18 22:33N 47°39' W 122°12'0 2.1
2017-Jul-18 22:30N 47°39' W 122°13'1 0.6
2017-Jul-18 20:28N 47°40' W 122°13'1 2.3
2017-Jul-18 19:56N 47°39' W 122°12'0 0.0
2017-Jul-18 19:29N 47°39' W 122°12'0 0.0
2017-Jul-18 17:41N 47°39' W 122°12'0 0.0
2017-Jul-18 17:23N 47°39' W 122°12'0 0.0
2017-Jul-18 16:59N 47°39' W 122°12'0 0.0
2017-Jul-18 16:23N 47°39' W 122°12'0 0.0
2017-Jul-18 13:38N 47°39' W 122°12'0 0.0
2017-Jul-18 12:32N 47°39' W 122°12'0 0.0
2017-Jul-18 12:29N 47°39' W 122°12'0 0.0
2017-Jul-18 11:53N 47°39' W 122°12'0 0.0
2017-Jul-18 11:20N 47°39' W 122°12'0 0.0
2017-Jul-18 04:11N 47°39' W 122°12'0 0.0
2017-Jul-18 03:05N 47°39' W 122°12'0 0.0
2017-Jul-18 00:29N 47°39' W 122°12'0 0.0
2017-Jul-17 23:11N 47°39' W 122°12'0 0.0
2017-Jul-17 22:47N 47°39' W 122°12'0 0.0
2017-Jul-17 18:11N 47°39' W 122°12'0 0.0
2017-Jul-17 17:53N 47°39' W 122°12'0 0.0
2017-Jul-17 17:23N 47°39' W 122°12'0 0.0
2017-Jul-17 16:53N 47°39' W 122°12'0 0.0
2017-Jul-17 16:29N 47°39' W 122°12'0 0.0
2017-Jul-17 15:53N 47°39' W 122°12'0 0.0
2017-Jul-17 15:17N 47°39' W 122°12'0 0.0
2017-Jul-17 14:59N 47°39' W 122°12'0 0.0
2017-Jul-17 14:29N 47°39' W 122°12'0 0.0
2017-Jul-17 13:59N 47°39' W 122°12'0 0.0
2017-Jul-17 13:17N 47°39' W 122°12'0 0.0
2017-Jul-17 12:59N 47°39' W 122°12'0 0.0
2017-Jul-17 10:59N 47°39' W 122°12'0 0.0
2017-Jul-17 10:23N 47°39' W 122°12'0 0.1
2017-Jul-17 09:53N 47°39' W 122°12'0 0.1
2017-Jul-17 09:29N 47°39' W 122°12'0 0.0
2017-Jul-17 05:47N 47°39' W 122°12'0 0.0
2017-Jul-17 05:11N 47°39' W 122°12'0 0.0
2017-Jul-17 04:59N 47°39' W 122°12'0 0.0
2017-Jul-17 04:29N 47°39' W 122°12'0 0.0
2017-Jul-17 03:53N 47°39' W 122°12'0 0.0
2017-Jul-17 03:29N 47°39' W 122°12'0 0.0
2017-Jul-16 23:17N 47°39' W 122°12'0 0.0
2017-Jul-16 22:47N 47°39' W 122°12'  

Dump ship's entire track history